sensor_id;sensor_type;location;lat;lon;timestamp;P1;durP1;ratioP1;P2;durP2;ratioP2
66739;SDS011;53653;52.188;8.602;2023-12-29T00:02:19;6.43;;;1.40;;
66739;SDS011;53653;52.188;8.602;2023-12-29T00:04:45;7.30;;;1.83;;
66739;SDS011;53653;52.188;8.602;2023-12-29T00:07:10;7.35;;;1.73;;
66739;SDS011;53653;52.188;8.602;2023-12-29T00:09:36;5.53;;;1.60;;
66739;SDS011;53653;52.188;8.602;2023-12-29T00:12:06;8.00;;;1.50;;
66739;SDS011;53653;52.188;8.602;2023-12-29T00:14:32;9.35;;;1.65;;
66739;SDS011;53653;52.188;8.602;2023-12-29T00:16:58;6.22;;;1.55;;
66739;SDS011;53653;52.188;8.602;2023-12-29T00:19:24;8.73;;;1.30;;
66739;SDS011;53653;52.188;8.602;2023-12-29T00:21:50;9.30;;;1.60;;
66739;SDS011;53653;52.188;8.602;2023-12-29T00:24:16;6.70;;;1.30;;
66739;SDS011;53653;52.188;8.602;2023-12-29T00:26:42;10.07;;;1.63;;
66739;SDS011;53653;52.188;8.602;2023-12-29T00:29:07;7.57;;;1.85;;
66739;SDS011;53653;52.188;8.602;2023-12-29T00:31:33;4.97;;;1.23;;
66739;SDS011;53653;52.188;8.602;2023-12-29T00:33:59;7.55;;;1.73;;
66739;SDS011;53653;52.188;8.602;2023-12-29T00:36:24;7.03;;;1.37;;
66739;SDS011;53653;52.188;8.602;2023-12-29T00:38:50;10.68;;;1.67;;
66739;SDS011;53653;52.188;8.602;2023-12-29T00:41:16;6.23;;;1.43;;
66739;SDS011;53653;52.188;8.602;2023-12-29T00:43:42;9.85;;;1.70;;
66739;SDS011;53653;52.188;8.602;2023-12-29T00:46:07;11.07;;;2.00;;
66739;SDS011;53653;52.188;8.602;2023-12-29T00:48:35;5.25;;;1.35;;
66739;SDS011;53653;52.188;8.602;2023-12-29T00:51:01;6.60;;;1.60;;
66739;SDS011;53653;52.188;8.602;2023-12-29T00:53:29;9.93;;;1.58;;
66739;SDS011;53653;52.188;8.602;2023-12-29T00:55:57;7.40;;;1.58;;
66739;SDS011;53653;52.188;8.602;2023-12-29T00:58:23;9.45;;;1.45;;
66739;SDS011;53653;52.188;8.602;2023-12-29T01:00:48;7.67;;;1.47;;
66739;SDS011;53653;52.188;8.602;2023-12-29T01:03:14;10.20;;;1.60;;
66739;SDS011;53653;52.188;8.602;2023-12-29T01:05:39;7.25;;;1.50;;
66739;SDS011;53653;52.188;8.602;2023-12-29T01:08:05;9.17;;;1.60;;
66739;SDS011;53653;52.188;8.602;2023-12-29T01:10:30;8.90;;;1.50;;
66739;SDS011;53653;52.188;8.602;2023-12-29T01:12:56;6.70;;;1.60;;
66739;SDS011;53653;52.188;8.602;2023-12-29T01:15:21;6.07;;;1.40;;
66739;SDS011;53653;52.188;8.602;2023-12-29T01:17:47;10.07;;;1.67;;
66739;SDS011;53653;52.188;8.602;2023-12-29T01:20:12;10.57;;;1.80;;
66739;SDS011;53653;52.188;8.602;2023-12-29T01:22:38;5.03;;;1.33;;
66739;SDS011;53653;52.188;8.602;2023-12-29T01:25:03;7.43;;;1.30;;
66739;SDS011;53653;52.188;8.602;2023-12-29T01:27:29;6.85;;;1.40;;
66739;SDS011;53653;52.188;8.602;2023-12-29T01:29:55;10.77;;;1.87;;
66739;SDS011;53653;52.188;8.602;2023-12-29T01:32:21;6.90;;;1.92;;
66739;SDS011;53653;52.188;8.602;2023-12-29T01:34:47;5.82;;;1.40;;
66739;SDS011;53653;52.188;8.602;2023-12-29T01:37:13;9.43;;;2.10;;
66739;SDS011;53653;52.188;8.602;2023-12-29T01:39:38;6.95;;;1.55;;
66739;SDS011;53653;52.188;8.602;2023-12-29T01:42:07;5.10;;;1.50;;
66739;SDS011;53653;52.188;8.602;2023-12-29T01:44:33;8.02;;;1.50;;
66739;SDS011;53653;52.188;8.602;2023-12-29T01:46:59;7.25;;;1.50;;
66739;SDS011;53653;52.188;8.602;2023-12-29T01:49:26;7.50;;;1.57;;
66739;SDS011;53653;52.188;8.602;2023-12-29T01:51:58;7.05;;;1.50;;
66739;SDS011;53653;52.188;8.602;2023-12-29T01:54:25;7.10;;;1.85;;
66739;SDS011;53653;52.188;8.602;2023-12-29T01:56:54;12.32;;;1.23;;
66739;SDS011;53653;52.188;8.602;2023-12-29T01:59:23;7.05;;;1.65;;
66739;SDS011;53653;52.188;8.602;2023-12-29T02:01:50;12.03;;;1.80;;
66739;SDS011;53653;52.188;8.602;2023-12-29T02:04:16;8.98;;;1.98;;
66739;SDS011;53653;52.188;8.602;2023-12-29T02:06:43;5.78;;;1.60;;
66739;SDS011;53653;52.188;8.602;2023-12-29T02:09:08;5.63;;;1.50;;
66739;SDS011;53653;52.188;8.602;2023-12-29T02:11:34;6.05;;;1.73;;
66739;SDS011;53653;52.188;8.602;2023-12-29T02:14:01;8.15;;;1.70;;
66739;SDS011;53653;52.188;8.602;2023-12-29T02:19:00;7.47;;;1.40;;
66739;SDS011;53653;52.188;8.602;2023-12-29T02:21:29;8.48;;;1.90;;
66739;SDS011;53653;52.188;8.602;2023-12-29T02:23:55;7.00;;;1.55;;
66739;SDS011;53653;52.188;8.602;2023-12-29T02:26:22;7.65;;;1.83;;
66739;SDS011;53653;52.188;8.602;2023-12-29T02:28:55;6.75;;;1.40;;
66739;SDS011;53653;52.188;8.602;2023-12-29T02:31:25;9.40;;;1.47;;
66739;SDS011;53653;52.188;8.602;2023-12-29T02:33:54;3.72;;;1.00;;
66739;SDS011;53653;52.188;8.602;2023-12-29T02:36:21;7.32;;;1.25;;
66739;SDS011;53653;52.188;8.602;2023-12-29T02:38:48;6.78;;;1.30;;
66739;SDS011;53653;52.188;8.602;2023-12-29T02:41:13;6.67;;;1.30;;
66739;SDS011;53653;52.188;8.602;2023-12-29T02:43:40;7.68;;;1.40;;
66739;SDS011;53653;52.188;8.602;2023-12-29T02:46:05;5.70;;;1.33;;
66739;SDS011;53653;52.188;8.602;2023-12-29T02:48:31;8.27;;;1.33;;
66739;SDS011;53653;52.188;8.602;2023-12-29T02:50:56;6.07;;;1.20;;
66739;SDS011;53653;52.188;8.602;2023-12-29T02:53:22;6.35;;;1.42;;
66739;SDS011;53653;52.188;8.602;2023-12-29T02:55:47;5.80;;;1.17;;
66739;SDS011;53653;52.188;8.602;2023-12-29T02:58:13;4.93;;;1.03;;
66739;SDS011;53653;52.188;8.602;2023-12-29T03:00:38;4.90;;;0.93;;
66739;SDS011;53653;52.188;8.602;2023-12-29T03:03:04;5.97;;;1.20;;
66739;SDS011;53653;52.188;8.602;2023-12-29T03:05:30;6.47;;;1.30;;
66739;SDS011;53653;52.188;8.602;2023-12-29T03:07:56;5.90;;;1.10;;
66739;SDS011;53653;52.188;8.602;2023-12-29T03:10:23;6.30;;;1.42;;
66739;SDS011;53653;52.188;8.602;2023-12-29T03:12:48;7.30;;;1.43;;
66739;SDS011;53653;52.188;8.602;2023-12-29T03:15:14;6.82;;;1.30;;
66739;SDS011;53653;52.188;8.602;2023-12-29T03:17:40;10.63;;;1.73;;
66739;SDS011;53653;52.188;8.602;2023-12-29T03:20:05;7.50;;;1.40;;
66739;SDS011;53653;52.188;8.602;2023-12-29T03:22:32;5.63;;;1.83;;
66739;SDS011;53653;52.188;8.602;2023-12-29T03:24:58;8.00;;;1.40;;
66739;SDS011;53653;52.188;8.602;2023-12-29T03:27:24;6.30;;;2.07;;
66739;SDS011;53653;52.188;8.602;2023-12-29T03:29:49;9.83;;;1.60;;
66739;SDS011;53653;52.188;8.602;2023-12-29T03:32:15;6.72;;;1.30;;
66739;SDS011;53653;52.188;8.602;2023-12-29T03:34:41;6.32;;;1.33;;
66739;SDS011;53653;52.188;8.602;2023-12-29T03:37:06;4.23;;;1.10;;
66739;SDS011;53653;52.188;8.602;2023-12-29T03:39:32;5.78;;;1.20;;
66739;SDS011;53653;52.188;8.602;2023-12-29T03:42:00;5.57;;;1.50;;
66739;SDS011;53653;52.188;8.602;2023-12-29T03:44:26;5.35;;;1.20;;
66739;SDS011;53653;52.188;8.602;2023-12-29T03:46:51;8.57;;;1.53;;
66739;SDS011;53653;52.188;8.602;2023-12-29T03:49:17;6.05;;;1.15;;
66739;SDS011;53653;52.188;8.602;2023-12-29T03:51:42;5.27;;;1.43;;
66739;SDS011;53653;52.188;8.602;2023-12-29T03:54:08;6.20;;;1.90;;
66739;SDS011;53653;52.188;8.602;2023-12-29T03:56:33;5.97;;;1.30;;
66739;SDS011;53653;52.188;8.602;2023-12-29T03:58:59;9.40;;;1.43;;
66739;SDS011;53653;52.188;8.602;2023-12-29T04:01:24;5.00;;;1.17;;
66739;SDS011;53653;52.188;8.602;2023-12-29T04:03:50;7.78;;;1.35;;
66739;SDS011;53653;52.188;8.602;2023-12-29T04:06:16;7.73;;;1.20;;
66739;SDS011;53653;52.188;8.602;2023-12-29T04:08:41;4.32;;;1.45;;
66739;SDS011;53653;52.188;8.602;2023-12-29T04:11:07;7.40;;;2.03;;
66739;SDS011;53653;52.188;8.602;2023-12-29T04:13:34;6.15;;;1.27;;
66739;SDS011;53653;52.188;8.602;2023-12-29T04:16:00;5.72;;;1.42;;
66739;SDS011;53653;52.188;8.602;2023-12-29T04:18:25;9.07;;;2.13;;
66739;SDS011;53653;52.188;8.602;2023-12-29T04:20:51;5.77;;;1.40;;
66739;SDS011;53653;52.188;8.602;2023-12-29T04:23:16;5.28;;;1.50;;
66739;SDS011;53653;52.188;8.602;2023-12-29T04:25:42;5.33;;;1.53;;
66739;SDS011;53653;52.188;8.602;2023-12-29T04:28:07;8.87;;;2.00;;
66739;SDS011;53653;52.188;8.602;2023-12-29T04:30:34;6.70;;;1.80;;
66739;SDS011;53653;52.188;8.602;2023-12-29T04:32:59;9.65;;;2.20;;
66739;SDS011;53653;52.188;8.602;2023-12-29T04:35:25;5.60;;;1.57;;
66739;SDS011;53653;52.188;8.602;2023-12-29T04:37:50;7.97;;;2.08;;
66739;SDS011;53653;52.188;8.602;2023-12-29T04:40:16;10.03;;;2.57;;
66739;SDS011;53653;52.188;8.602;2023-12-29T04:42:42;12.00;;;2.70;;
66739;SDS011;53653;52.188;8.602;2023-12-29T04:45:08;9.50;;;2.80;;
66739;SDS011;53653;52.188;8.602;2023-12-29T04:47:35;12.63;;;3.67;;
66739;SDS011;53653;52.188;8.602;2023-12-29T04:50:01;9.95;;;2.75;;
66739;SDS011;53653;52.188;8.602;2023-12-29T04:52:27;11.63;;;2.80;;
66739;SDS011;53653;52.188;8.602;2023-12-29T04:54:52;7.70;;;2.30;;
66739;SDS011;53653;52.188;8.602;2023-12-29T04:57:18;9.70;;;2.93;;
66739;SDS011;53653;52.188;8.602;2023-12-29T04:59:43;11.70;;;2.80;;
66739;SDS011;53653;52.188;8.602;2023-12-29T05:02:09;10.40;;;2.97;;
66739;SDS011;53653;52.188;8.602;2023-12-29T05:04:34;10.90;;;3.17;;
66739;SDS011;53653;52.188;8.602;2023-12-29T05:07:00;13.73;;;3.25;;
66739;SDS011;53653;52.188;8.602;2023-12-29T05:09:25;8.33;;;3.00;;
66739;SDS011;53653;52.188;8.602;2023-12-29T05:11:51;11.40;;;3.30;;
66739;SDS011;53653;52.188;8.602;2023-12-29T05:14:16;9.52;;;2.60;;
66739;SDS011;53653;52.188;8.602;2023-12-29T05:16:42;11.57;;;3.23;;
66739;SDS011;53653;52.188;8.602;2023-12-29T05:19:08;10.47;;;3.00;;
66739;SDS011;53653;52.188;8.602;2023-12-29T05:21:33;9.73;;;3.00;;
66739;SDS011;53653;52.188;8.602;2023-12-29T05:23:59;9.27;;;2.87;;
66739;SDS011;53653;52.188;8.602;2023-12-29T05:26:25;8.88;;;2.45;;
66739;SDS011;53653;52.188;8.602;2023-12-29T05:28:50;10.23;;;2.23;;
66739;SDS011;53653;52.188;8.602;2023-12-29T05:31:16;14.50;;;3.83;;
66739;SDS011;53653;52.188;8.602;2023-12-29T05:33:42;11.15;;;2.75;;
66739;SDS011;53653;52.188;8.602;2023-12-29T05:36:09;20.03;;;3.47;;
66739;SDS011;53653;52.188;8.602;2023-12-29T05:38:36;10.75;;;2.60;;
66739;SDS011;53653;52.188;8.602;2023-12-29T05:41:02;10.60;;;2.92;;
66739;SDS011;53653;52.188;8.602;2023-12-29T05:43:30;9.75;;;2.80;;
66739;SDS011;53653;52.188;8.602;2023-12-29T05:45:57;8.70;;;2.83;;
66739;SDS011;53653;52.188;8.602;2023-12-29T05:48:23;9.33;;;2.40;;
66739;SDS011;53653;52.188;8.602;2023-12-29T05:50:49;7.53;;;1.95;;
66739;SDS011;53653;52.188;8.602;2023-12-29T05:53:16;15.10;;;2.63;;
66739;SDS011;53653;52.188;8.602;2023-12-29T05:55:43;11.00;;;2.40;;
66739;SDS011;53653;52.188;8.602;2023-12-29T05:58:09;10.70;;;2.63;;
66739;SDS011;53653;52.188;8.602;2023-12-29T06:00:36;9.00;;;2.00;;
66739;SDS011;53653;52.188;8.602;2023-12-29T06:03:01;9.03;;;1.83;;
66739;SDS011;53653;52.188;8.602;2023-12-29T06:05:29;7.05;;;1.80;;
66739;SDS011;53653;52.188;8.602;2023-12-29T06:07:55;9.30;;;2.10;;
66739;SDS011;53653;52.188;8.602;2023-12-29T06:10:21;10.20;;;2.15;;
66739;SDS011;53653;52.188;8.602;2023-12-29T06:12:47;7.37;;;2.03;;
66739;SDS011;53653;52.188;8.602;2023-12-29T06:15:13;7.25;;;1.70;;
66739;SDS011;53653;52.188;8.602;2023-12-29T06:17:39;9.85;;;1.85;;
66739;SDS011;53653;52.188;8.602;2023-12-29T06:20:06;11.13;;;2.15;;
66739;SDS011;53653;52.188;8.602;2023-12-29T06:22:32;8.17;;;2.60;;
66739;SDS011;53653;52.188;8.602;2023-12-29T06:24:58;9.63;;;2.13;;
66739;SDS011;53653;52.188;8.602;2023-12-29T06:27:24;6.45;;;1.80;;
66739;SDS011;53653;52.188;8.602;2023-12-29T06:29:50;6.40;;;2.00;;
66739;SDS011;53653;52.188;8.602;2023-12-29T06:32:16;10.10;;;2.00;;
66739;SDS011;53653;52.188;8.602;2023-12-29T06:34:42;10.73;;;2.40;;
66739;SDS011;53653;52.188;8.602;2023-12-29T06:37:08;10.40;;;2.05;;
66739;SDS011;53653;52.188;8.602;2023-12-29T06:39:33;8.43;;;2.10;;
66739;SDS011;53653;52.188;8.602;2023-12-29T06:41:59;8.43;;;2.30;;
66739;SDS011;53653;52.188;8.602;2023-12-29T06:44:25;7.50;;;1.63;;
66739;SDS011;53653;52.188;8.602;2023-12-29T06:46:50;7.78;;;2.00;;
66739;SDS011;53653;52.188;8.602;2023-12-29T06:49:16;7.07;;;1.60;;
66739;SDS011;53653;52.188;8.602;2023-12-29T06:51:41;8.23;;;1.63;;
66739;SDS011;53653;52.188;8.602;2023-12-29T06:54:07;9.73;;;3.60;;
66739;SDS011;53653;52.188;8.602;2023-12-29T06:56:34;12.48;;;2.53;;
66739;SDS011;53653;52.188;8.602;2023-12-29T06:58:59;10.37;;;2.87;;
66739;SDS011;53653;52.188;8.602;2023-12-29T07:01:25;8.00;;;2.00;;
66739;SDS011;53653;52.188;8.602;2023-12-29T07:03:51;8.25;;;2.30;;
66739;SDS011;53653;52.188;8.602;2023-12-29T07:06:16;8.10;;;1.70;;
66739;SDS011;53653;52.188;8.602;2023-12-29T07:08:42;8.98;;;1.90;;
66739;SDS011;53653;52.188;8.602;2023-12-29T07:11:11;8.70;;;1.97;;
66739;SDS011;53653;52.188;8.602;2023-12-29T07:13:37;9.50;;;2.17;;
66739;SDS011;53653;52.188;8.602;2023-12-29T07:16:03;7.30;;;1.73;;
66739;SDS011;53653;52.188;8.602;2023-12-29T07:18:29;7.50;;;1.87;;
66739;SDS011;53653;52.188;8.602;2023-12-29T07:20:54;9.55;;;1.98;;
66739;SDS011;53653;52.188;8.602;2023-12-29T07:23:20;7.80;;;1.80;;
66739;SDS011;53653;52.188;8.602;2023-12-29T07:25:46;9.05;;;1.83;;
66739;SDS011;53653;52.188;8.602;2023-12-29T07:28:13;6.50;;;1.60;;
66739;SDS011;53653;52.188;8.602;2023-12-29T07:30:39;6.22;;;1.70;;
66739;SDS011;53653;52.188;8.602;2023-12-29T07:33:04;12.30;;;2.43;;
66739;SDS011;53653;52.188;8.602;2023-12-29T07:35:30;16.08;;;2.30;;
66739;SDS011;53653;52.188;8.602;2023-12-29T07:37:56;7.03;;;1.87;;
66739;SDS011;53653;52.188;8.602;2023-12-29T07:40:21;10.48;;;2.10;;
66739;SDS011;53653;52.188;8.602;2023-12-29T07:42:47;7.73;;;2.10;;
66739;SDS011;53653;52.188;8.602;2023-12-29T07:45:15;5.53;;;1.55;;
66739;SDS011;53653;52.188;8.602;2023-12-29T07:47:42;8.52;;;1.65;;
66739;SDS011;53653;52.188;8.602;2023-12-29T07:50:08;10.15;;;1.85;;
66739;SDS011;53653;52.188;8.602;2023-12-29T07:52:34;13.77;;;1.97;;
66739;SDS011;53653;52.188;8.602;2023-12-29T07:54:59;6.60;;;1.73;;
66739;SDS011;53653;52.188;8.602;2023-12-29T07:57:25;8.33;;;1.77;;
66739;SDS011;53653;52.188;8.602;2023-12-29T07:59:50;7.50;;;2.00;;
66739;SDS011;53653;52.188;8.602;2023-12-29T08:02:16;11.73;;;2.40;;
66739;SDS011;53653;52.188;8.602;2023-12-29T08:04:41;10.00;;;2.00;;
66739;SDS011;53653;52.188;8.602;2023-12-29T08:07:07;9.73;;;1.50;;
66739;SDS011;53653;52.188;8.602;2023-12-29T08:09:33;10.60;;;1.80;;
66739;SDS011;53653;52.188;8.602;2023-12-29T08:11:58;11.17;;;1.87;;
66739;SDS011;53653;52.188;8.602;2023-12-29T08:14:23;10.43;;;1.87;;
66739;SDS011;53653;52.188;8.602;2023-12-29T08:16:49;12.30;;;2.10;;
66739;SDS011;53653;52.188;8.602;2023-12-29T08:19:14;13.83;;;2.10;;
66739;SDS011;53653;52.188;8.602;2023-12-29T08:21:41;7.72;;;1.88;;
66739;SDS011;53653;52.188;8.602;2023-12-29T08:24:06;9.63;;;2.00;;
66739;SDS011;53653;52.188;8.602;2023-12-29T08:26:32;10.83;;;2.47;;
66739;SDS011;53653;52.188;8.602;2023-12-29T08:28:57;11.87;;;2.13;;
66739;SDS011;53653;52.188;8.602;2023-12-29T08:31:23;9.50;;;2.30;;
66739;SDS011;53653;52.188;8.602;2023-12-29T08:33:49;10.88;;;2.08;;
66739;SDS011;53653;52.188;8.602;2023-12-29T08:36:17;10.77;;;2.20;;
66739;SDS011;53653;52.188;8.602;2023-12-29T08:38:43;9.18;;;2.28;;
66739;SDS011;53653;52.188;8.602;2023-12-29T08:41:08;12.03;;;1.73;;
66739;SDS011;53653;52.188;8.602;2023-12-29T08:43:34;6.23;;;1.60;;
66739;SDS011;53653;52.188;8.602;2023-12-29T08:46:01;9.32;;;2.40;;
66739;SDS011;53653;52.188;8.602;2023-12-29T08:48:26;8.63;;;2.03;;
66739;SDS011;53653;52.188;8.602;2023-12-29T08:50:52;8.35;;;2.00;;
66739;SDS011;53653;52.188;8.602;2023-12-29T08:53:17;12.63;;;1.80;;
66739;SDS011;53653;52.188;8.602;2023-12-29T08:55:43;10.77;;;2.80;;
66739;SDS011;53653;52.188;8.602;2023-12-29T08:58:08;7.40;;;2.20;;
66739;SDS011;53653;52.188;8.602;2023-12-29T09:00:34;11.33;;;2.37;;
66739;SDS011;53653;52.188;8.602;2023-12-29T09:03:00;8.75;;;2.08;;
66739;SDS011;53653;52.188;8.602;2023-12-29T09:05:25;5.80;;;1.57;;
66739;SDS011;53653;52.188;8.602;2023-12-29T09:07:50;6.47;;;1.60;;
66739;SDS011;53653;52.188;8.602;2023-12-29T09:10:16;10.50;;;2.63;;
66739;SDS011;53653;52.188;8.602;2023-12-29T09:12:41;9.30;;;2.23;;
66739;SDS011;53653;52.188;8.602;2023-12-29T09:15:07;10.70;;;2.30;;
66739;SDS011;53653;52.188;8.602;2023-12-29T09:17:33;10.87;;;2.33;;
66739;SDS011;53653;52.188;8.602;2023-12-29T09:19:59;8.95;;;2.35;;
66739;SDS011;53653;52.188;8.602;2023-12-29T09:22:25;9.95;;;2.03;;
66739;SDS011;53653;52.188;8.602;2023-12-29T09:24:50;8.10;;;2.23;;
66739;SDS011;53653;52.188;8.602;2023-12-29T09:27:15;9.07;;;2.30;;
66739;SDS011;53653;52.188;8.602;2023-12-29T09:29:42;7.68;;;2.25;;
66739;SDS011;53653;52.188;8.602;2023-12-29T09:32:08;11.05;;;2.20;;
66739;SDS011;53653;52.188;8.602;2023-12-29T09:34:33;7.03;;;2.00;;
66739;SDS011;53653;52.188;8.602;2023-12-29T09:36:59;8.67;;;2.50;;
66739;SDS011;53653;52.188;8.602;2023-12-29T09:39:24;9.98;;;1.85;;
66739;SDS011;53653;52.188;8.602;2023-12-29T09:41:53;7.80;;;2.10;;
66739;SDS011;53653;52.188;8.602;2023-12-29T09:44:22;8.93;;;2.30;;
66739;SDS011;53653;52.188;8.602;2023-12-29T09:46:49;10.93;;;2.53;;
66739;SDS011;53653;52.188;8.602;2023-12-29T09:49:16;9.03;;;1.87;;
66739;SDS011;53653;52.188;8.602;2023-12-29T09:51:44;8.77;;;2.15;;
66739;SDS011;53653;52.188;8.602;2023-12-29T09:54:09;5.78;;;1.88;;
66739;SDS011;53653;52.188;8.602;2023-12-29T09:56:36;6.57;;;1.93;;
66739;SDS011;53653;52.188;8.602;2023-12-29T09:59:02;7.32;;;1.95;;
66739;SDS011;53653;52.188;8.602;2023-12-29T10:01:28;7.07;;;1.95;;
66739;SDS011;53653;52.188;8.602;2023-12-29T10:03:56;5.45;;;1.95;;
66739;SDS011;53653;52.188;8.602;2023-12-29T10:06:25;6.40;;;1.80;;
66739;SDS011;53653;52.188;8.602;2023-12-29T10:08:51;7.40;;;2.10;;
66739;SDS011;53653;52.188;8.602;2023-12-29T10:11:18;8.13;;;2.33;;
66739;SDS011;53653;52.188;8.602;2023-12-29T10:13:49;6.93;;;1.80;;
66739;SDS011;53653;52.188;8.602;2023-12-29T10:19:05;5.65;;;1.63;;
66739;SDS011;53653;52.188;8.602;2023-12-29T10:21:44;6.83;;;1.70;;
66739;SDS011;53653;52.188;8.602;2023-12-29T10:24:27;7.05;;;1.60;;
66739;SDS011;53653;52.188;8.602;2023-12-29T10:26:53;5.43;;;2.17;;
66739;SDS011;53653;52.188;8.602;2023-12-29T10:29:20;7.15;;;1.63;;
66739;SDS011;53653;52.188;8.602;2023-12-29T10:31:46;5.60;;;1.92;;
66739;SDS011;53653;52.188;8.602;2023-12-29T10:34:22;6.30;;;1.97;;
66739;SDS011;53653;52.188;8.602;2023-12-29T10:36:53;7.35;;;2.00;;
66739;SDS011;53653;52.188;8.602;2023-12-29T10:39:19;12.35;;;2.58;;
66739;SDS011;53653;52.188;8.602;2023-12-29T10:41:45;6.57;;;2.30;;
66739;SDS011;53653;52.188;8.602;2023-12-29T10:44:10;10.50;;;2.58;;
66739;SDS011;53653;52.188;8.602;2023-12-29T10:46:36;7.13;;;2.13;;
66739;SDS011;53653;52.188;8.602;2023-12-29T10:49:11;7.47;;;2.40;;
66739;SDS011;53653;52.188;8.602;2023-12-29T10:51:38;6.30;;;1.88;;
66739;SDS011;53653;52.188;8.602;2023-12-29T10:54:04;7.35;;;2.40;;
66739;SDS011;53653;52.188;8.602;2023-12-29T10:56:30;9.77;;;2.93;;
66739;SDS011;53653;52.188;8.602;2023-12-29T10:58:59;11.23;;;1.92;;
66739;SDS011;53653;52.188;8.602;2023-12-29T11:01:33;6.43;;;2.20;;
66739;SDS011;53653;52.188;8.602;2023-12-29T11:06:27;6.50;;;1.95;;
66739;SDS011;53653;52.188;8.602;2023-12-29T11:08:56;7.70;;;1.50;;
66739;SDS011;53653;52.188;8.602;2023-12-29T11:11:22;5.53;;;1.55;;
66739;SDS011;53653;52.188;8.602;2023-12-29T11:13:48;7.45;;;1.88;;
66739;SDS011;53653;52.188;8.602;2023-12-29T11:16:16;8.10;;;2.08;;
66739;SDS011;53653;52.188;8.602;2023-12-29T11:18:43;6.07;;;1.73;;
66739;SDS011;53653;52.188;8.602;2023-12-29T11:21:10;5.33;;;1.50;;
66739;SDS011;53653;52.188;8.602;2023-12-29T11:23:35;7.25;;;1.67;;
66739;SDS011;53653;52.188;8.602;2023-12-29T11:26:01;7.10;;;1.70;;
66739;SDS011;53653;52.188;8.602;2023-12-29T11:28:28;4.93;;;1.30;;
66739;SDS011;53653;52.188;8.602;2023-12-29T11:30:54;4.35;;;1.58;;
66739;SDS011;53653;52.188;8.602;2023-12-29T11:33:39;6.57;;;1.83;;
66739;SDS011;53653;52.188;8.602;2023-12-29T11:36:29;5.53;;;1.57;;
66739;SDS011;53653;52.188;8.602;2023-12-29T11:42:11;4.80;;;1.50;;
66739;SDS011;53653;52.188;8.602;2023-12-29T11:44:48;4.88;;;1.40;;
66739;SDS011;53653;52.188;8.602;2023-12-29T11:47:34;5.20;;;1.65;;
66739;SDS011;53653;52.188;8.602;2023-12-29T11:50:02;5.57;;;1.77;;
66739;SDS011;53653;52.188;8.602;2023-12-29T11:55:08;5.28;;;1.58;;
66739;SDS011;53653;52.188;8.602;2023-12-29T11:57:34;4.50;;;1.60;;
66739;SDS011;53653;52.188;8.602;2023-12-29T12:00:01;4.68;;;1.75;;
66739;SDS011;53653;52.188;8.602;2023-12-29T12:02:36;5.13;;;1.80;;
66739;SDS011;53653;52.188;8.602;2023-12-29T12:05:03;4.60;;;1.75;;
66739;SDS011;53653;52.188;8.602;2023-12-29T12:12:45;8.30;;;1.70;;
66739;SDS011;53653;52.188;8.602;2023-12-29T12:15:44;4.90;;;1.70;;
66739;SDS011;53653;52.188;8.602;2023-12-29T12:18:04;4.80;;;1.50;;
66739;SDS011;53653;52.188;8.602;2023-12-29T12:20:34;5.60;;;1.93;;
66739;SDS011;53653;52.188;8.602;2023-12-29T12:23:18;4.82;;;1.67;;
66739;SDS011;53653;52.188;8.602;2023-12-29T12:25:45;7.10;;;1.70;;
66739;SDS011;53653;52.188;8.602;2023-12-29T12:28:11;5.82;;;1.77;;
66739;SDS011;53653;52.188;8.602;2023-12-29T12:30:39;5.33;;;1.50;;
66739;SDS011;53653;52.188;8.602;2023-12-29T12:33:05;4.85;;;1.75;;
66739;SDS011;53653;52.188;8.602;2023-12-29T12:35:31;4.80;;;1.60;;
66739;SDS011;53653;52.188;8.602;2023-12-29T12:38:13;4.72;;;1.42;;
66739;SDS011;53653;52.188;8.602;2023-12-29T12:40:39;5.82;;;1.75;;
66739;SDS011;53653;52.188;8.602;2023-12-29T12:43:05;5.30;;;1.75;;
66739;SDS011;53653;52.188;8.602;2023-12-29T12:45:41;4.97;;;1.47;;
66739;SDS011;53653;52.188;8.602;2023-12-29T12:48:42;5.15;;;1.60;;
66739;SDS011;53653;52.188;8.602;2023-12-29T12:51:07;5.75;;;1.85;;
66739;SDS011;53653;52.188;8.602;2023-12-29T12:53:34;3.92;;;1.50;;
66739;SDS011;53653;52.188;8.602;2023-12-29T12:56:05;5.05;;;1.48;;
66739;SDS011;53653;52.188;8.602;2023-12-29T12:58:31;6.70;;;1.57;;
66739;SDS011;53653;52.188;8.602;2023-12-29T13:00:57;4.72;;;1.30;;
66739;SDS011;53653;52.188;8.602;2023-12-29T13:03:24;4.45;;;1.33;;
66739;SDS011;53653;52.188;8.602;2023-12-29T13:05:50;4.30;;;1.10;;
66739;SDS011;53653;52.188;8.602;2023-12-29T13:08:16;5.00;;;1.45;;
66739;SDS011;53653;52.188;8.602;2023-12-29T13:10:42;6.15;;;1.10;;
66739;SDS011;53653;52.188;8.602;2023-12-29T13:13:08;4.50;;;1.10;;
66739;SDS011;53653;52.188;8.602;2023-12-29T13:15:34;4.65;;;1.10;;
66739;SDS011;53653;52.188;8.602;2023-12-29T13:17:59;5.00;;;1.20;;
66739;SDS011;53653;52.188;8.602;2023-12-29T13:20:25;4.43;;;1.07;;
66739;SDS011;53653;52.188;8.602;2023-12-29T13:22:50;5.30;;;1.30;;
66739;SDS011;53653;52.188;8.602;2023-12-29T13:25:34;3.53;;;1.05;;
66739;SDS011;53653;52.188;8.602;2023-12-29T13:28:00;5.43;;;1.10;;
66739;SDS011;53653;52.188;8.602;2023-12-29T13:30:28;8.05;;;2.25;;
66739;SDS011;53653;52.188;8.602;2023-12-29T13:32:54;6.13;;;1.80;;
66739;SDS011;53653;52.188;8.602;2023-12-29T13:35:21;11.02;;;2.00;;
66739;SDS011;53653;52.188;8.602;2023-12-29T13:40:35;4.43;;;1.23;;
66739;SDS011;53653;52.188;8.602;2023-12-29T13:43:07;4.95;;;1.55;;
66739;SDS011;53653;52.188;8.602;2023-12-29T13:45:34;6.18;;;1.67;;
66739;SDS011;53653;52.188;8.602;2023-12-29T13:48:01;6.95;;;1.40;;
66739;SDS011;53653;52.188;8.602;2023-12-29T13:50:27;5.57;;;1.50;;
66739;SDS011;53653;52.188;8.602;2023-12-29T13:52:53;5.53;;;1.40;;
66739;SDS011;53653;52.188;8.602;2023-12-29T13:55:22;5.13;;;1.70;;
66739;SDS011;53653;52.188;8.602;2023-12-29T13:57:49;5.07;;;1.50;;
66739;SDS011;53653;52.188;8.602;2023-12-29T14:00:18;5.70;;;1.52;;
66739;SDS011;53653;52.188;8.602;2023-12-29T14:08:18;4.03;;;1.20;;
66739;SDS011;53653;52.188;8.602;2023-12-29T14:10:52;4.40;;;1.20;;
66739;SDS011;53653;52.188;8.602;2023-12-29T14:13:18;6.20;;;1.60;;
66739;SDS011;53653;52.188;8.602;2023-12-29T14:15:45;5.55;;;1.30;;
66739;SDS011;53653;52.188;8.602;2023-12-29T14:21:19;5.63;;;1.33;;
66739;SDS011;53653;52.188;8.602;2023-12-29T14:26:36;4.75;;;1.10;;
66739;SDS011;53653;52.188;8.602;2023-12-29T14:29:03;6.70;;;1.70;;
66739;SDS011;53653;52.188;8.602;2023-12-29T14:31:37;6.68;;;1.50;;
66739;SDS011;53653;52.188;8.602;2023-12-29T14:34:07;6.87;;;1.37;;
66739;SDS011;53653;52.188;8.602;2023-12-29T14:36:33;7.97;;;1.60;;
66739;SDS011;53653;52.188;8.602;2023-12-29T14:39:00;8.65;;;2.33;;
66739;SDS011;53653;52.188;8.602;2023-12-29T14:41:26;7.10;;;1.77;;
66739;SDS011;53653;52.188;8.602;2023-12-29T14:43:52;6.93;;;1.60;;
66739;SDS011;53653;52.188;8.602;2023-12-29T14:46:18;9.80;;;1.63;;
66739;SDS011;53653;52.188;8.602;2023-12-29T14:48:44;6.63;;;1.75;;
66739;SDS011;53653;52.188;8.602;2023-12-29T14:51:09;5.53;;;1.80;;
66739;SDS011;53653;52.188;8.602;2023-12-29T14:53:36;8.52;;;2.10;;
66739;SDS011;53653;52.188;8.602;2023-12-29T14:56:02;6.20;;;1.70;;
66739;SDS011;53653;52.188;8.602;2023-12-29T14:58:28;5.65;;;1.50;;
66739;SDS011;53653;52.188;8.602;2023-12-29T15:00:54;5.83;;;1.63;;
66739;SDS011;53653;52.188;8.602;2023-12-29T15:03:19;4.10;;;1.30;;
66739;SDS011;53653;52.188;8.602;2023-12-29T15:05:46;6.68;;;1.70;;
66739;SDS011;53653;52.188;8.602;2023-12-29T15:08:12;6.22;;;1.63;;
66739;SDS011;53653;52.188;8.602;2023-12-29T15:10:38;5.80;;;1.50;;
66739;SDS011;53653;52.188;8.602;2023-12-29T15:13:03;7.15;;;2.40;;
66739;SDS011;53653;52.188;8.602;2023-12-29T15:15:31;6.53;;;1.87;;
66739;SDS011;53653;52.188;8.602;2023-12-29T15:17:57;6.93;;;1.90;;